MEDEVAC MYBS-KFLL
Flight info
| Callsign | MEDEVAC |
|---|---|
| Flight time | N/A |
| Altitude | 4000 |
| Route | DCT |
| Aircraft | BE58/L-SDFGRY/C |
Departure
| Time | 2026-05-05 17:50 |
|---|---|
| Airport | South Bimini Airport (MYBS) |
Arrival
| Time | N/A |
|---|---|
| Airport | Fort Lauderdale Hollywood International Airport (KFLL) |
| Time | Latitude | Longitude | Altitude | Speed | Heading |
|---|---|---|---|---|---|
| 2026-05-05 17:45 | 25.70070 | -79.27284 | 35 ft | 0 kts | 183° |
| 2026-05-05 17:46 | 25.70049 | -79.27285 | 35 ft | 8 kts | 177° |
| 2026-05-05 17:46 | 25.69986 | -79.27330 | 35 ft | 15 kts | 276° |
| 2026-05-05 17:47 | 25.70001 | -79.27475 | 36 ft | 21 kts | 266° |
| 2026-05-05 17:47 | 25.69985 | -79.27614 | 33 ft | 18 kts | 346° |
| 2026-05-05 17:47 | 25.69999 | -79.27580 | 33 ft | 0 kts | 92° |
| 2026-05-05 17:47 | 25.69997 | -79.27557 | 34 ft | 11 kts | 93° |
| 2026-05-05 17:48 | 25.69995 | -79.27264 | 35 ft | 63 kts | 90° |
| 2026-05-05 17:48 | 25.69991 | -79.26643 | 33 ft | 94 kts | 90° |
| 2026-05-05 17:48 | 25.69996 | -79.25861 | 66 ft | 105 kts | 88° |
| 2026-05-05 17:48 | 25.69992 | -79.25069 | 198 ft | 101 kts | 93° |
| 2026-05-05 17:49 | 25.69953 | -79.24272 | 279 ft | 102 kts | 94° |
| 2026-05-05 17:49 | 25.69904 | -79.23491 | 394 ft | 101 kts | 97° |
| 2026-05-05 17:49 | 25.69812 | -79.22716 | 448 ft | 107 kts | 97° |
| 2026-05-05 17:49 | 25.69575 | -79.21879 | 407 ft | 120 kts | 118° |
| 2026-05-05 17:50 | 25.69044 | -79.21178 | 494 ft | 119 kts | 144° |
| 2026-05-05 17:50 | 25.68288 | -79.20895 | 620 ft | 115 kts | 181° |
| 2026-05-05 17:50 | 25.67534 | -79.21160 | 675 ft | 117 kts | 215° |
| 2026-05-05 17:50 | 25.67072 | -79.21895 | 792 ft | 119 kts | 264° |
| 2026-05-05 17:51 | 25.67264 | -79.22798 | 863 ft | 131 kts | 291° |
| 2026-05-05 17:51 | 25.67608 | -79.23726 | 1085 ft | 126 kts | 295° |
| 2026-05-05 17:51 | 25.67951 | -79.24598 | 1318 ft | 123 kts | 294° |
| 2026-05-05 17:51 | 25.68405 | -79.25450 | 1333 ft | 136 kts | 300° |
| 2026-05-05 17:52 | 25.68781 | -79.26425 | 1378 ft | 141 kts | 284° |
| 2026-05-05 17:52 | 25.68975 | -79.27502 | 1347 ft | 140 kts | 284° |
| 2026-05-05 17:52 | 25.69233 | -79.28560 | 1219 ft | 143 kts | 283° |
| 2026-05-05 17:52 | 25.69477 | -79.29637 | 992 ft | 140 kts | 289° |
| 2026-05-05 17:53 | 25.69957 | -79.30466 | 712 ft | 121 kts | 324° |
| 2026-05-05 17:53 | 25.70720 | -79.30629 | 586 ft | 116 kts | 12° |
| 2026-05-05 17:53 | 25.71286 | -79.30031 | 587 ft | 120 kts | 70° |
| 2026-05-05 17:53 | 25.71126 | -79.29188 | 621 ft | 122 kts | 137° |
| 2026-05-05 17:54 | 25.70436 | -79.28559 | 343 ft | 128 kts | 139° |
| 2026-05-05 17:54 | 25.70004 | -79.27789 | 135 ft | 115 kts | 104° |
| 2026-05-05 17:54 | 25.69980 | -79.27032 | 33 ft | 82 kts | 89° |
| 2026-05-05 17:54 | 25.69980 | -79.26591 | 34 ft | 40 kts | 90° |
| 2026-05-05 17:55 | 25.70000 | -79.26469 | 36 ft | 19 kts | 78° |